createdAt,value
2022-11-12T00:01:57.304Z,8.50
2022-11-12T00:04:42.527Z,8.50
2022-11-12T00:07:28.007Z,8.40
2022-11-12T00:10:13.299Z,8.30
2022-11-12T00:12:59.623Z,8.30
2022-11-12T00:15:47.306Z,8.20
2022-11-12T00:18:32.758Z,8.20
2022-11-12T00:21:18.095Z,8.20
2022-11-12T00:24:03.478Z,8.20
2022-11-12T00:26:48.794Z,8.30
2022-11-12T00:29:34.404Z,8.30
2022-11-12T00:32:20.053Z,8.30
2022-11-12T00:35:08.713Z,8.40
2022-11-12T00:37:56.990Z,8.40
2022-11-12T00:40:42.775Z,8.40
2022-11-12T00:43:28.460Z,8.50
2022-11-12T00:46:13.720Z,8.50
2022-11-12T00:48:59.148Z,8.50
2022-11-12T00:51:44.653Z,8.50
2022-11-12T00:54:29.857Z,8.50
2022-11-12T00:57:15.165Z,8.50
2022-11-12T01:00:00.646Z,8.60
2022-11-12T01:02:50.734Z,8.50
2022-11-12T01:05:36.394Z,8.60
2022-11-12T01:08:21.658Z,8.50
2022-11-12T01:11:08.275Z,8.50
2022-11-12T01:14:05.986Z,8.50
2022-11-12T01:16:51.056Z,8.50
2022-11-12T01:19:36.487Z,8.50
2022-11-12T01:22:22.013Z,8.50
2022-11-12T01:25:07.689Z,8.50
2022-11-12T01:27:53.477Z,8.50
2022-11-12T01:30:38.844Z,8.60
2022-11-12T01:33:24.475Z,8.50
2022-11-12T01:36:11.019Z,8.50
2022-11-12T01:38:56.099Z,8.50
2022-11-12T01:41:42.204Z,8.50
2022-11-12T01:44:31.787Z,8.40
2022-11-12T01:47:32.911Z,8.50
2022-11-12T01:50:23.586Z,8.60
2022-11-12T01:53:12.271Z,8.50
2022-11-12T01:55:59.604Z,8.50
2022-11-12T01:58:46.700Z,8.50
2022-11-12T02:01:31.983Z,8.50
2022-11-12T02:04:17.673Z,8.50
2022-11-12T02:07:03.471Z,8.50
2022-11-12T02:09:48.615Z,8.50
2022-11-12T02:12:52.596Z,8.60
2022-11-12T02:15:38.861Z,8.60
2022-11-12T02:18:24.182Z,8.60
2022-11-12T02:21:09.962Z,8.70
2022-11-12T02:24:18.758Z,8.70
2022-11-12T02:27:05.749Z,8.70
2022-11-12T02:29:51.456Z,8.80
2022-11-12T02:32:36.826Z,8.80
2022-11-12T02:35:22.242Z,8.70
2022-11-12T02:38:08.538Z,8.80
2022-11-12T02:40:53.723Z,8.80
2022-11-12T02:43:39.717Z,8.80
2022-11-12T02:46:25.055Z,8.80
2022-11-12T02:49:10.919Z,8.80
2022-11-12T02:51:56.345Z,8.90
2022-11-12T02:54:41.563Z,8.90
2022-11-12T02:57:27.265Z,8.90
2022-11-12T03:00:13.656Z,8.90
2022-11-12T03:03:01.701Z,8.90
2022-11-12T03:05:59.171Z,9.00
2022-11-12T03:08:44.819Z,8.90
2022-11-12T03:11:30.465Z,8.90
2022-11-12T03:14:16.016Z,8.80
2022-11-12T03:17:01.425Z,8.90
2022-11-12T03:19:46.877Z,8.90
2022-11-12T03:22:32.225Z,9.00
2022-11-12T03:25:17.657Z,9.00
2022-11-12T03:28:06.815Z,8.90
2022-11-12T03:30:51.867Z,8.90
2022-11-12T03:33:37.702Z,9.00
2022-11-12T03:36:23.101Z,9.00
2022-11-12T03:39:08.403Z,8.90
2022-11-12T03:41:53.815Z,9.00
2022-11-12T03:44:39.152Z,9.00
2022-11-12T03:47:24.579Z,9.00
2022-11-12T03:50:10.574Z,9.00
2022-11-12T03:52:58.583Z,9.00
2022-11-12T03:55:44.009Z,9.00
2022-11-12T03:58:29.470Z,8.90
2022-11-12T04:01:14.843Z,8.90
2022-11-12T04:04:00.205Z,8.90
2022-11-12T04:07:04.115Z,8.90
2022-11-12T04:09:49.518Z,8.90
2022-11-12T04:12:53.428Z,8.90
2022-11-12T04:15:38.837Z,8.80
2022-11-12T04:18:42.539Z,8.80
2022-11-12T04:21:55.854Z,8.80
2022-11-12T04:25:01.482Z,8.90
2022-11-12T04:27:46.903Z,8.90
2022-11-12T04:30:32.072Z,8.90
2022-11-12T04:33:17.436Z,8.90
2022-11-12T04:36:02.914Z,8.90
2022-11-12T04:38:48.285Z,9.00
2022-11-12T04:41:52.286Z,9.00
2022-11-12T04:44:56.942Z,9.00
2022-11-12T04:47:43.991Z,9.00
2022-11-12T04:50:29.545Z,9.00
2022-11-12T04:53:14.858Z,9.00
2022-11-12T04:56:00.274Z,8.90
2022-11-12T04:58:45.701Z,9.00
2022-11-12T05:01:31.016Z,9.00
2022-11-12T05:04:16.617Z,9.00
2022-11-12T05:07:01.982Z,9.00
2022-11-12T05:09:47.242Z,9.00
2022-11-12T05:12:33.157Z,9.00
2022-11-12T05:15:18.359Z,9.00
2022-11-12T05:18:03.975Z,9.00
2022-11-12T05:20:51.226Z,9.00
2022-11-12T05:23:36.448Z,9.00
2022-11-12T05:26:21.844Z,8.90
2022-11-12T05:29:08.838Z,8.90
2022-11-12T05:31:54.712Z,8.90
2022-11-12T05:34:40.848Z,8.90
2022-11-12T05:37:25.876Z,8.80
2022-11-12T05:40:11.774Z,8.90
2022-11-12T05:42:57.324Z,8.90
2022-11-12T05:45:43.606Z,8.80
2022-11-12T05:48:29.372Z,8.90
2022-11-12T05:51:14.921Z,8.80
2022-11-12T05:54:00.968Z,8.80
2022-11-12T05:56:46.505Z,8.80
2022-11-12T05:59:31.952Z,8.80
2022-11-12T06:02:17.502Z,8.80
2022-11-12T06:05:02.787Z,8.80
2022-11-12T06:07:48.184Z,8.80
2022-11-12T06:10:33.773Z,8.80
2022-11-12T06:13:20.397Z,8.90
2022-11-12T06:16:06.675Z,8.80
2022-11-12T06:18:51.848Z,8.80
2022-11-12T06:21:37.226Z,8.70
2022-11-12T06:24:22.673Z,8.70
2022-11-12T06:27:07.947Z,8.70
2022-11-12T06:29:53.472Z,8.60
2022-11-12T06:32:38.782Z,8.60
2022-11-12T06:35:24.149Z,8.70
2022-11-12T06:38:09.630Z,8.70
2022-11-12T06:40:54.941Z,8.60
2022-11-12T06:43:41.165Z,8.60
2022-11-12T06:46:26.265Z,8.60
2022-11-12T06:49:11.642Z,8.50
2022-11-12T06:51:57.158Z,8.50
2022-11-12T06:54:42.581Z,8.40
2022-11-12T06:57:28.029Z,8.40
2022-11-12T07:00:13.820Z,8.40
2022-11-12T07:02:59.340Z,8.30
2022-11-12T07:05:44.557Z,8.30
2022-11-12T07:08:30.211Z,8.30
2022-11-12T07:11:17.816Z,8.20
2022-11-12T07:14:08.883Z,8.20
2022-11-12T07:16:53.895Z,8.30
2022-11-12T07:19:39.161Z,8.20
2022-11-12T07:22:24.411Z,8.30
2022-11-12T07:25:09.811Z,8.20
2022-11-12T07:27:55.342Z,8.30
2022-11-12T07:30:40.610Z,8.30
2022-11-12T07:33:27.112Z,8.30
2022-11-12T07:36:14.903Z,8.30
2022-11-12T07:39:00.442Z,8.40
2022-11-12T07:41:45.948Z,8.40
2022-11-12T07:44:31.258Z,8.50
2022-11-12T07:47:16.592Z,8.60
2022-11-12T07:50:01.957Z,8.70
2022-11-12T07:52:47.358Z,8.80
2022-11-12T07:55:32.660Z,8.90
2022-11-12T07:58:18.117Z,9.00
2022-11-12T08:01:28.945Z,9.10
2022-11-12T08:04:14.030Z,9.10
2022-11-12T08:06:59.383Z,9.10
2022-11-12T08:09:44.673Z,9.20
2022-11-12T08:12:30.313Z,9.20
2022-11-12T08:15:16.574Z,9.30
2022-11-12T08:18:01.716Z,9.40
2022-11-12T08:20:47.140Z,9.50
2022-11-12T08:23:32.530Z,9.70
2022-11-12T08:26:19.365Z,9.90
2022-11-12T08:29:08.750Z,10.10
2022-11-12T08:31:54.221Z,10.40
2022-11-12T08:34:41.235Z,10.50
2022-11-12T08:37:26.685Z,10.70
2022-11-12T08:40:12.683Z,10.80
2022-11-12T08:43:09.753Z,10.90
2022-11-12T08:45:57.191Z,10.90
2022-11-12T08:48:42.294Z,11.10
2022-11-12T08:51:27.562Z,11.30
2022-11-12T08:54:13.159Z,11.60
2022-11-12T08:56:58.459Z,11.90
2022-11-12T08:59:43.830Z,12.00
2022-11-12T09:02:29.415Z,12.20
2022-11-12T09:05:14.782Z,12.50
2022-11-12T09:08:12.470Z,12.80
2022-11-12T09:10:58.991Z,13.10
2022-11-12T09:13:44.728Z,13.30
2022-11-12T09:16:30.057Z,13.20
2022-11-12T09:19:15.464Z,13.30
2022-11-12T09:22:00.782Z,13.30
2022-11-12T09:24:45.982Z,13.40
2022-11-12T09:27:31.475Z,13.60
2022-11-12T09:30:16.864Z,13.80
2022-11-12T09:33:01.966Z,13.90
2022-11-12T09:35:48.049Z,14.00
2022-11-12T09:38:33.563Z,14.40
2022-11-12T09:41:38.931Z,14.60
2022-11-12T09:44:24.563Z,14.80
2022-11-12T09:47:26.738Z,15.10
2022-11-12T09:50:33.794Z,15.30
2022-11-12T09:53:44.087Z,15.60
2022-11-12T09:56:30.146Z,15.90
2022-11-12T09:59:16.499Z,16.20
2022-11-12T10:02:37.478Z,16.20
2022-11-12T10:05:28.823Z,16.20
2022-11-12T10:08:53.274Z,16.40
2022-11-12T10:12:33.119Z,16.40
2022-11-12T10:15:39.591Z,16.30
2022-11-12T10:19:05.702Z,16.40
2022-11-12T10:22:04.735Z,16.20
2022-11-12T10:24:50.288Z,16.00
2022-11-12T10:27:42.411Z,15.90
2022-11-12T10:30:27.713Z,15.80
2022-11-12T10:33:16.494Z,16.00
2022-11-12T10:36:29.969Z,15.90
2022-11-12T10:39:38.988Z,16.00
2022-11-12T10:42:24.196Z,16.00
2022-11-12T10:45:22.038Z,16.10
2022-11-12T10:48:33.308Z,16.10
2022-11-12T10:51:23.853Z,16.20
2022-11-12T10:54:29.348Z,16.10
2022-11-12T10:57:24.375Z,15.80
2022-11-12T11:00:13.130Z,15.80
2022-11-12T11:03:01.355Z,15.80
2022-11-12T11:05:55.242Z,15.80
2022-11-12T11:08:44.706Z,15.70
2022-11-12T11:11:31.921Z,15.40
2022-11-12T11:14:26.546Z,15.40
2022-11-12T11:17:17.970Z,15.60
2022-11-12T11:20:04.809Z,15.60
2022-11-12T11:22:57.406Z,15.60
2022-11-12T11:25:43.495Z,15.60
2022-11-12T11:28:40.378Z,15.70
2022-11-12T11:31:50.351Z,15.80
2022-11-12T11:35:02.817Z,15.90
2022-11-12T11:38:06.794Z,15.90
2022-11-12T11:41:02.911Z,15.90
2022-11-12T11:44:14.978Z,15.80
2022-11-12T11:47:03.328Z,15.90
2022-11-12T11:50:15.593Z,15.80
2022-11-12T11:53:39.230Z,15.90
2022-11-12T11:56:29.465Z,16.00
2022-11-12T11:59:32.643Z,16.00
2022-11-12T12:02:55.313Z,15.90
2022-11-12T12:05:43.221Z,16.10
2022-11-12T12:08:44.305Z,16.00
2022-11-12T12:11:47.543Z,16.10
2022-11-12T12:14:47.526Z,16.10
2022-11-12T12:17:43.607Z,16.20
2022-11-12T12:20:59.849Z,16.30
2022-11-12T12:23:59.701Z,16.30
2022-11-12T12:27:12.370Z,16.30
2022-11-12T12:30:06.611Z,16.30
2022-11-12T12:33:10.373Z,16.50
2022-11-12T12:36:03.063Z,16.40
2022-11-12T12:39:15.058Z,16.40
2022-11-12T12:42:18.407Z,16.40
2022-11-12T12:45:38.157Z,16.50
2022-11-12T12:48:40.389Z,16.40
2022-11-12T12:51:29.891Z,16.40
2022-11-12T12:54:36.939Z,16.30
2022-11-12T12:57:30.909Z,16.30
2022-11-12T13:00:32.635Z,16.30
2022-11-12T13:03:42.502Z,16.30
2022-11-12T13:06:45.671Z,16.30
2022-11-12T13:09:30.740Z,16.30
2022-11-12T13:12:17.424Z,16.30
2022-11-12T13:15:12.144Z,16.20
2022-11-12T13:17:57.396Z,16.20
2022-11-12T13:20:46.441Z,16.20
2022-11-12T13:24:03.311Z,16.20
2022-11-12T13:26:51.539Z,16.20
2022-11-12T13:29:36.817Z,16.20
2022-11-12T13:32:32.183Z,16.20
2022-11-12T13:35:17.751Z,16.20
2022-11-12T13:38:09.364Z,16.30
2022-11-12T13:41:05.419Z,16.30
2022-11-12T13:43:51.927Z,16.30
2022-11-12T13:46:37.435Z,16.20
2022-11-12T13:49:23.098Z,16.20
2022-11-12T13:52:08.494Z,16.20
2022-11-12T13:55:12.873Z,16.30
2022-11-12T13:57:58.153Z,16.30
2022-11-12T14:00:55.481Z,16.40
2022-11-12T14:03:47.842Z,16.40
2022-11-12T14:06:38.678Z,16.40
2022-11-12T14:09:59.206Z,16.40
2022-11-12T14:13:09.179Z,16.40
2022-11-12T14:16:22.006Z,16.30
2022-11-12T14:19:13.522Z,16.20
2022-11-12T14:22:13.726Z,16.20
2022-11-12T14:25:02.887Z,16.30
2022-11-12T14:27:49.446Z,16.20
2022-11-12T14:30:42.823Z,16.10
2022-11-12T14:33:30.001Z,16.10
2022-11-12T14:36:18.314Z,16.10
2022-11-12T14:39:03.990Z,16.00
2022-11-12T14:41:50.822Z,16.00
2022-11-12T14:44:38.028Z,16.00
2022-11-12T14:47:24.154Z,15.80
2022-11-12T14:50:16.629Z,15.70
2022-11-12T14:53:07.850Z,15.70
2022-11-12T14:55:55.680Z,15.70
2022-11-12T14:58:41.743Z,15.70
2022-11-12T15:04:54.646Z,15.50
2022-11-12T15:08:03.466Z,15.50
2022-11-12T15:10:48.702Z,15.40
2022-11-12T15:13:40.068Z,15.40
2022-11-12T15:16:36.070Z,15.30
2022-11-12T15:19:26.385Z,15.30
2022-11-12T15:22:21.177Z,15.30
2022-11-12T15:25:28.577Z,15.20
2022-11-12T15:28:22.264Z,15.20
2022-11-12T15:31:20.066Z,15.10
2022-11-12T15:34:24.247Z,15.10
2022-11-12T15:37:19.422Z,15.10
2022-11-12T15:40:12.488Z,15.10
2022-11-12T15:42:57.858Z,15.10
2022-11-12T15:45:43.327Z,15.10
2022-11-12T15:48:28.822Z,15.00
2022-11-12T15:51:17.167Z,14.90
2022-11-12T15:54:02.153Z,14.90
2022-11-12T15:56:47.790Z,14.90
2022-11-12T15:59:33.236Z,14.80
2022-11-12T16:02:18.762Z,14.80
2022-11-12T16:05:04.431Z,14.70
2022-11-12T16:07:49.714Z,14.60
2022-11-12T16:10:35.859Z,14.60
2022-11-12T16:13:29.890Z,14.60
2022-11-12T16:16:15.482Z,14.70
2022-11-12T16:19:00.687Z,14.70
2022-11-12T16:21:46.177Z,14.70
2022-11-12T16:24:31.340Z,14.70
2022-11-12T16:27:17.344Z,14.70
2022-11-12T16:30:02.926Z,14.70
2022-11-12T16:32:48.710Z,14.60
2022-11-12T16:35:35.303Z,14.60
2022-11-12T16:38:21.405Z,14.50
2022-11-12T16:41:10.875Z,14.50
2022-11-12T16:43:56.521Z,14.50
2022-11-12T16:46:42.244Z,14.40
2022-11-12T16:49:27.259Z,14.30
2022-11-12T16:52:12.784Z,14.20
2022-11-12T16:55:04.103Z,14.00
2022-11-12T16:57:49.737Z,14.00
2022-11-12T17:00:35.199Z,14.00
2022-11-12T17:03:20.493Z,14.00
2022-11-12T17:06:06.415Z,13.90
2022-11-12T17:08:54.781Z,13.90
2022-11-12T17:11:40.192Z,13.90
2022-11-12T17:14:28.363Z,13.90
2022-11-12T17:17:14.211Z,13.90
2022-11-12T17:19:59.660Z,13.90
2022-11-12T17:22:45.389Z,13.90
2022-11-12T17:25:30.759Z,13.80
2022-11-12T17:28:16.153Z,13.70
2022-11-12T17:31:06.785Z,13.70
2022-11-12T17:33:53.429Z,13.80
2022-11-12T17:36:43.330Z,13.70
2022-11-12T17:39:29.097Z,13.60
2022-11-12T17:42:14.137Z,13.50
2022-11-12T17:44:59.461Z,13.30
2022-11-12T17:47:44.763Z,13.20
2022-11-12T17:50:30.058Z,13.10
2022-11-12T17:53:15.706Z,13.10
2022-11-12T17:56:01.752Z,13.00
2022-11-12T17:58:47.275Z,13.10
2022-11-12T18:01:33.757Z,13.00
2022-11-12T18:04:19.344Z,13.10
2022-11-12T18:07:04.838Z,13.10
2022-11-12T18:09:50.281Z,13.10
2022-11-12T18:12:35.471Z,13.10
2022-11-12T18:15:20.742Z,13.10
2022-11-12T18:18:06.049Z,13.20
2022-11-12T18:20:51.485Z,13.20
2022-11-12T18:23:38.954Z,13.30
2022-11-12T18:26:24.007Z,13.30
2022-11-12T18:29:09.401Z,13.40
2022-11-12T18:31:55.034Z,13.30
2022-11-12T18:34:44.920Z,13.30
2022-11-12T18:37:30.029Z,13.40
2022-11-12T18:40:15.895Z,13.40
2022-11-12T18:43:01.424Z,13.30
2022-11-12T18:45:54.432Z,13.30
2022-11-12T18:48:42.877Z,13.30
2022-11-12T18:51:28.089Z,13.20
2022-11-12T18:54:15.124Z,13.20
2022-11-12T18:57:00.644Z,13.20
2022-11-12T18:59:47.718Z,13.10
2022-11-12T19:02:32.792Z,13.10
2022-11-12T19:05:20.695Z,13.00
2022-11-12T19:08:05.878Z,13.10
2022-11-12T19:10:57.933Z,13.10
2022-11-12T19:13:43.217Z,13.20
2022-11-12T19:16:29.052Z,13.30
2022-11-12T19:19:15.186Z,13.30
2022-11-12T19:22:00.302Z,13.20
2022-11-12T19:24:45.654Z,13.30
2022-11-12T19:27:31.219Z,13.30
2022-11-12T19:30:17.094Z,13.30
2022-11-12T19:33:02.514Z,13.20
2022-11-12T19:35:48.097Z,13.20
2022-11-12T19:38:33.530Z,13.10
2022-11-12T19:41:20.122Z,13.10
2022-11-12T19:44:06.011Z,13.10
2022-11-12T19:46:51.447Z,13.10
2022-11-12T19:49:36.835Z,13.00
2022-11-12T19:52:22.365Z,13.00
2022-11-12T19:55:08.017Z,12.90
2022-11-12T19:57:53.109Z,12.90
2022-11-12T20:00:38.371Z,12.80
2022-11-12T20:03:26.096Z,12.80
2022-11-12T20:06:14.367Z,12.80
2022-11-12T20:09:00.096Z,12.70
2022-11-12T20:11:45.191Z,12.70
2022-11-12T20:14:30.350Z,12.70
2022-11-12T20:17:15.765Z,12.60
2022-11-12T20:20:01.229Z,12.60
2022-11-12T20:22:46.618Z,12.60
2022-11-12T20:25:32.136Z,12.60
2022-11-12T20:28:17.993Z,12.60
2022-11-12T20:31:05.938Z,12.60
2022-11-12T20:33:51.710Z,12.70
2022-11-12T20:36:37.630Z,12.70
2022-11-12T20:39:22.936Z,12.80
2022-11-12T20:42:08.291Z,12.80
2022-11-12T20:44:53.629Z,12.80
2022-11-12T20:47:39.081Z,12.80
2022-11-12T20:50:24.450Z,12.80
2022-11-12T20:53:09.874Z,12.80
2022-11-12T20:55:55.393Z,12.80
2022-11-12T20:58:40.889Z,12.80
2022-11-12T21:01:28.872Z,12.70
2022-11-12T21:04:14.226Z,12.70
2022-11-12T21:07:05.126Z,12.70
2022-11-12T21:09:50.889Z,12.60
2022-11-12T21:12:37.252Z,12.60
2022-11-12T21:15:22.762Z,12.60
2022-11-12T21:18:08.449Z,12.50
2022-11-12T21:21:07.489Z,12.50
2022-11-12T21:23:53.870Z,12.50
2022-11-12T21:26:39.217Z,12.40
2022-11-12T21:29:24.539Z,12.50
2022-11-12T21:32:10.070Z,12.40
2022-11-12T21:34:55.679Z,12.50
2022-11-12T21:37:41.308Z,12.40
2022-11-12T21:40:26.670Z,12.50
2022-11-12T21:43:12.163Z,12.50
2022-11-12T21:45:57.659Z,12.50
2022-11-12T21:48:43.899Z,12.50
2022-11-12T21:51:31.830Z,12.60
2022-11-12T21:54:17.188Z,12.60
2022-11-12T21:57:02.449Z,12.60
2022-11-12T21:59:47.916Z,12.60
2022-11-12T22:02:33.270Z,12.60
2022-11-12T22:05:18.670Z,12.50
2022-11-12T22:08:04.060Z,12.50
2022-11-12T22:10:49.612Z,12.60
2022-11-12T22:13:35.693Z,12.60
2022-11-12T22:16:27.523Z,12.60
2022-11-12T22:19:12.791Z,12.60
2022-11-12T22:21:57.858Z,12.60
2022-11-12T22:24:43.711Z,12.50
2022-11-12T22:27:31.551Z,12.50
2022-11-12T22:30:17.092Z,12.60
2022-11-12T22:33:02.419Z,12.50
2022-11-12T22:35:47.829Z,12.50
2022-11-12T22:38:41.826Z,12.40
2022-11-12T22:41:29.732Z,12.40
2022-11-12T22:44:14.792Z,12.30
2022-11-12T22:47:00.183Z,12.30
2022-11-12T22:49:45.571Z,12.30
2022-11-12T22:52:30.885Z,12.20
2022-11-12T22:55:16.360Z,12.20
2022-11-12T22:58:01.618Z,12.20
2022-11-12T23:00:47.067Z,12.10
2022-11-12T23:03:35.946Z,12.00
2022-11-12T23:06:22.013Z,12.00
2022-11-12T23:09:07.525Z,12.00
2022-11-12T23:11:52.791Z,11.90
2022-11-12T23:14:38.146Z,11.90
2022-11-12T23:17:23.936Z,11.90
2022-11-12T23:20:09.534Z,12.00
2022-11-12T23:22:54.556Z,12.00
2022-11-12T23:25:39.961Z,12.00
2022-11-12T23:28:25.697Z,12.00
2022-11-12T23:31:17.427Z,12.00
2022-11-12T23:34:02.867Z,12.00
2022-11-12T23:36:48.128Z,12.10
2022-11-12T23:39:33.646Z,12.10
2022-11-12T23:42:19.119Z,12.00
2022-11-12T23:45:05.035Z,12.00
2022-11-12T23:47:50.661Z,12.10
2022-11-12T23:50:35.909Z,12.00
2022-11-12T23:53:21.268Z,11.90
2022-11-12T23:56:09.343Z,11.90
2022-11-12T23:58:58.259Z,11.80
